sensor_id;sensor_type;location;lat;lon;timestamp;pressure;altitude;pressure_sealevel;temperature;humidity
25080;BME280;13071;48.868;9.996;2022-07-12T00:02:02;97207.47;;;14.31;91.39
25080;BME280;13071;48.868;9.996;2022-07-12T00:04:29;97208.41;;;14.47;91.33
25080;BME280;13071;48.868;9.996;2022-07-12T00:06:56;97202.59;;;14.60;90.70
25080;BME280;13071;48.868;9.996;2022-07-12T00:09:24;97202.38;;;14.65;90.66
25080;BME280;13071;48.868;9.996;2022-07-12T00:11:50;97197.84;;;14.57;91.37
25080;BME280;13071;48.868;9.996;2022-07-12T00:14:17;97202.06;;;14.55;90.77
25080;BME280;13071;48.868;9.996;2022-07-12T00:16:43;97199.13;;;14.60;90.54
25080;BME280;13071;48.868;9.996;2022-07-12T00:19:10;97199.09;;;14.72;89.71
25080;BME280;13071;48.868;9.996;2022-07-12T00:21:37;97201.13;;;14.75;89.55
25080;BME280;13071;48.868;9.996;2022-07-12T00:24:03;97206.00;;;14.82;89.97
25080;BME280;13071;48.868;9.996;2022-07-12T00:26:32;97200.88;;;14.92;90.08
25080;BME280;13071;48.868;9.996;2022-07-12T00:28:58;97210.41;;;14.98;89.80
25080;BME280;13071;48.868;9.996;2022-07-12T00:31:25;97207.69;;;14.86;90.38
25080;BME280;13071;48.868;9.996;2022-07-12T00:33:51;97200.34;;;14.75;90.68
25080;BME280;13071;48.868;9.996;2022-07-12T00:36:18;97204.31;;;14.77;90.65
25080;BME280;13071;48.868;9.996;2022-07-12T00:38:45;97207.25;;;14.84;90.65
25080;BME280;13071;48.868;9.996;2022-07-12T00:41:12;97205.09;;;14.78;90.46
25080;BME280;13071;48.868;9.996;2022-07-12T00:43:40;97197.50;;;14.71;90.20
25080;BME280;13071;48.868;9.996;2022-07-12T00:46:07;97200.78;;;14.77;90.74
25080;BME280;13071;48.868;9.996;2022-07-12T00:48:34;97198.84;;;14.77;91.29
25080;BME280;13071;48.868;9.996;2022-07-12T00:51:02;97201.81;;;14.84;90.88
25080;BME280;13071;48.868;9.996;2022-07-12T00:53:29;97194.91;;;14.75;90.65
25080;BME280;13071;48.868;9.996;2022-07-12T00:55:57;97193.44;;;14.65;91.08
25080;BME280;13071;48.868;9.996;2022-07-12T00:58:24;97193.09;;;14.54;90.97
25080;BME280;13071;48.868;9.996;2022-07-12T01:00:52;97198.41;;;14.63;90.73
25080;BME280;13071;48.868;9.996;2022-07-12T01:03:21;97196.38;;;14.72;90.93
25080;BME280;13071;48.868;9.996;2022-07-12T01:05:47;97193.06;;;14.66;91.82
25080;BME280;13071;48.868;9.996;2022-07-12T01:08:15;97191.38;;;14.62;92.01
25080;BME280;13071;48.868;9.996;2022-07-12T01:10:43;97191.84;;;14.64;91.24
25080;BME280;13071;48.868;9.996;2022-07-12T01:13:11;97184.78;;;14.63;91.77
25080;BME280;13071;48.868;9.996;2022-07-12T01:15:38;97180.03;;;14.60;91.31
25080;BME280;13071;48.868;9.996;2022-07-12T01:18:09;97176.19;;;14.49;92.76
25080;BME280;13071;48.868;9.996;2022-07-12T01:20:36;97185.03;;;14.46;93.12
25080;BME280;13071;48.868;9.996;2022-07-12T01:23:04;97182.44;;;14.49;93.40
25080;BME280;13071;48.868;9.996;2022-07-12T01:25:31;97179.56;;;14.46;93.16
25080;BME280;13071;48.868;9.996;2022-07-12T01:27:58;97187.84;;;14.01;94.04
25080;BME280;13071;48.868;9.996;2022-07-12T01:30:25;97189.09;;;14.15;93.95
25080;BME280;13071;48.868;9.996;2022-07-12T01:32:52;97195.09;;;14.21;93.91
25080;BME280;13071;48.868;9.996;2022-07-12T01:35:20;97191.94;;;14.19;93.05
25080;BME280;13071;48.868;9.996;2022-07-12T01:37:48;97202.47;;;14.20;94.00
25080;BME280;13071;48.868;9.996;2022-07-12T01:40:16;97193.53;;;14.20;95.07
25080;BME280;13071;48.868;9.996;2022-07-12T01:42:43;97192.50;;;14.24;94.81
25080;BME280;13071;48.868;9.996;2022-07-12T01:45:11;97199.59;;;13.93;95.39
25080;BME280;13071;48.868;9.996;2022-07-12T01:47:38;97195.41;;;13.95;94.07
25080;BME280;13071;48.868;9.996;2022-07-12T01:50:07;97193.94;;;13.98;94.07
25080;BME280;13071;48.868;9.996;2022-07-12T01:52:34;97195.41;;;14.07;94.11
25080;BME280;13071;48.868;9.996;2022-07-12T01:55:02;97198.94;;;14.08;94.38
25080;BME280;13071;48.868;9.996;2022-07-12T01:57:31;97191.03;;;14.15;94.45
25080;BME280;13071;48.868;9.996;2022-07-12T01:59:59;97196.25;;;14.20;94.31
25080;BME280;13071;48.868;9.996;2022-07-12T02:02:27;97198.28;;;14.23;94.23
25080;BME280;13071;48.868;9.996;2022-07-12T02:04:56;97199.97;;;14.27;94.14
25080;BME280;13071;48.868;9.996;2022-07-12T02:07:23;97194.66;;;14.19;94.63
25080;BME280;13071;48.868;9.996;2022-07-12T02:09:51;97199.84;;;14.12;94.98
25080;BME280;13071;48.868;9.996;2022-07-12T02:12:17;97189.66;;;14.09;94.72
25080;BME280;13071;48.868;9.996;2022-07-12T02:14:45;97184.78;;;14.14;95.07
25080;BME280;13071;48.868;9.996;2022-07-12T02:17:12;97186.59;;;14.22;95.15
25080;BME280;13071;48.868;9.996;2022-07-12T02:19:38;97188.66;;;14.25;94.29
25080;BME280;13071;48.868;9.996;2022-07-12T02:22:05;97188.75;;;14.17;95.04
25080;BME280;13071;48.868;9.996;2022-07-12T02:24:32;97191.00;;;14.27;94.84
25080;BME280;13071;48.868;9.996;2022-07-12T02:26:58;97191.16;;;14.31;94.34
25080;BME280;13071;48.868;9.996;2022-07-12T02:29:25;97188.06;;;14.20;94.66
25080;BME280;13071;48.868;9.996;2022-07-12T02:31:53;97178.66;;;14.17;94.14
25080;BME280;13071;48.868;9.996;2022-07-12T02:34:20;97177.06;;;14.16;94.17
25080;BME280;13071;48.868;9.996;2022-07-12T02:36:46;97181.94;;;14.11;94.61
25080;BME280;13071;48.868;9.996;2022-07-12T02:39:13;97182.84;;;14.15;94.23
25080;BME280;13071;48.868;9.996;2022-07-12T02:41:40;97188.41;;;14.18;93.79
25080;BME280;13071;48.868;9.996;2022-07-12T02:44:06;97182.38;;;14.13;93.44
25080;BME280;13071;48.868;9.996;2022-07-12T02:46:33;97181.38;;;14.05;93.65
25080;BME280;13071;48.868;9.996;2022-07-12T02:49:02;97181.81;;;14.07;94.10
25080;BME280;13071;48.868;9.996;2022-07-12T02:51:29;97178.66;;;14.05;93.96
25080;BME280;13071;48.868;9.996;2022-07-12T02:53:55;97184.97;;;13.97;93.54
25080;BME280;13071;48.868;9.996;2022-07-12T02:56:22;97178.16;;;13.79;93.81
25080;BME280;13071;48.868;9.996;2022-07-12T02:58:48;97183.78;;;13.74;94.50
25080;BME280;13071;48.868;9.996;2022-07-12T03:01:15;97181.34;;;13.81;94.54
25080;BME280;13071;48.868;9.996;2022-07-12T03:03:42;97189.16;;;13.50;94.90
25080;BME280;13071;48.868;9.996;2022-07-12T03:06:10;97184.81;;;13.69;94.19
25080;BME280;13071;48.868;9.996;2022-07-12T03:08:38;97184.53;;;13.50;94.82
25080;BME280;13071;48.868;9.996;2022-07-12T03:11:04;97187.84;;;13.56;95.24
25080;BME280;13071;48.868;9.996;2022-07-12T03:13:31;97183.09;;;13.65;94.99
25080;BME280;13071;48.868;9.996;2022-07-12T03:15:58;97184.97;;;13.52;93.94
25080;BME280;13071;48.868;9.996;2022-07-12T03:18:25;97193.13;;;13.52;93.87
25080;BME280;13071;48.868;9.996;2022-07-12T03:20:51;97193.47;;;13.51;93.72
25080;BME280;13071;48.868;9.996;2022-07-12T03:23:19;97203.28;;;13.43;93.21
25080;BME280;13071;48.868;9.996;2022-07-12T03:25:46;97199.28;;;13.28;94.00
25080;BME280;13071;48.868;9.996;2022-07-12T03:28:12;97204.19;;;13.35;93.62
25080;BME280;13071;48.868;9.996;2022-07-12T03:30:39;97201.25;;;13.40;93.15
25080;BME280;13071;48.868;9.996;2022-07-12T03:33:06;97201.38;;;13.44;92.61
25080;BME280;13071;48.868;9.996;2022-07-12T03:35:33;97204.69;;;13.49;92.31
25080;BME280;13071;48.868;9.996;2022-07-12T03:38:00;97206.28;;;13.50;91.73
25080;BME280;13071;48.868;9.996;2022-07-12T03:40:31;97210.41;;;13.35;91.79
25080;BME280;13071;48.868;9.996;2022-07-12T03:42:57;97210.81;;;13.25;91.45
25080;BME280;13071;48.868;9.996;2022-07-12T03:45:24;97212.75;;;13.25;91.32
25080;BME280;13071;48.868;9.996;2022-07-12T03:47:51;97224.28;;;13.22;91.01
25080;BME280;13071;48.868;9.996;2022-07-12T03:50:18;97214.38;;;13.17;91.34
25080;BME280;13071;48.868;9.996;2022-07-12T03:52:44;97217.19;;;13.29;90.79
25080;BME280;13071;48.868;9.996;2022-07-12T03:55:11;97223.53;;;13.33;90.84
25080;BME280;13071;48.868;9.996;2022-07-12T03:57:40;97223.13;;;13.44;90.25
25080;BME280;13071;48.868;9.996;2022-07-12T04:00:08;97221.00;;;13.49;90.10
25080;BME280;13071;48.868;9.996;2022-07-12T04:02:37;97224.75;;;13.57;90.04
25080;BME280;13071;48.868;9.996;2022-07-12T04:05:05;97221.75;;;14.15;88.46
25080;BME280;13071;48.868;9.996;2022-07-12T04:07:32;97219.88;;;14.64;86.06
25080;BME280;13071;48.868;9.996;2022-07-12T04:09:58;97213.84;;;14.83;84.74
25080;BME280;13071;48.868;9.996;2022-07-12T04:12:25;97215.41;;;15.36;82.49
25080;BME280;13071;48.868;9.996;2022-07-12T04:14:53;97218.34;;;16.46;78.59
25080;BME280;13071;48.868;9.996;2022-07-12T04:17:20;97209.88;;;17.56;73.75
25080;BME280;13071;48.868;9.996;2022-07-12T04:19:46;97219.59;;;17.73;72.91
25080;BME280;13071;48.868;9.996;2022-07-12T04:22:13;97214.19;;;17.38;73.46
25080;BME280;13071;48.868;9.996;2022-07-12T04:24:39;97219.25;;;17.74;72.68
25080;BME280;13071;48.868;9.996;2022-07-12T04:27:06;97218.94;;;18.21;71.10
25080;BME280;13071;48.868;9.996;2022-07-12T04:29:32;97219.75;;;18.67;69.85
25080;BME280;13071;48.868;9.996;2022-07-12T04:32:01;97221.97;;;19.70;66.54
25080;BME280;13071;48.868;9.996;2022-07-12T04:34:27;97215.31;;;20.45;64.79
25080;BME280;13071;48.868;9.996;2022-07-12T04:36:54;97220.91;;;20.19;65.76
25080;BME280;13071;48.868;9.996;2022-07-12T04:39:20;97214.72;;;21.24;63.21
25080;BME280;13071;48.868;9.996;2022-07-12T04:41:48;97219.97;;;21.61;60.88
25080;BME280;13071;48.868;9.996;2022-07-12T04:44:14;97221.41;;;22.34;59.78
25080;BME280;13071;48.868;9.996;2022-07-12T04:46:41;97219.06;;;22.90;58.08
25080;BME280;13071;48.868;9.996;2022-07-12T04:49:09;97220.94;;;23.42;56.51
25080;BME280;13071;48.868;9.996;2022-07-12T04:51:35;97229.06;;;23.88;56.37
25080;BME280;13071;48.868;9.996;2022-07-12T04:54:02;97224.38;;;24.51;54.85
25080;BME280;13071;48.868;9.996;2022-07-12T04:56:29;97216.72;;;24.69;54.60
25080;BME280;13071;48.868;9.996;2022-07-12T04:58:56;97225.38;;;22.58;58.59
25080;BME280;13071;48.868;9.996;2022-07-12T05:01:22;97228.81;;;23.58;57.67
25080;BME280;13071;48.868;9.996;2022-07-12T05:03:49;97231.69;;;22.98;58.55
25080;BME280;13071;48.868;9.996;2022-07-12T05:06:17;97226.94;;;23.09;59.18
25080;BME280;13071;48.868;9.996;2022-07-12T05:08:44;97228.44;;;23.42;57.91
25080;BME280;13071;48.868;9.996;2022-07-12T05:11:11;97227.34;;;22.68;60.02
25080;BME280;13071;48.868;9.996;2022-07-12T05:13:38;97229.03;;;21.51;62.68
25080;BME280;13071;48.868;9.996;2022-07-12T05:16:06;97228.25;;;21.58;63.61
25080;BME280;13071;48.868;9.996;2022-07-12T05:18:33;97227.31;;;21.29;63.54
25080;BME280;13071;48.868;9.996;2022-07-12T05:21:00;97224.38;;;20.53;66.21
25080;BME280;13071;48.868;9.996;2022-07-12T05:23:28;97231.13;;;19.81;67.63
25080;BME280;13071;48.868;9.996;2022-07-12T05:25:54;97239.69;;;19.17;69.74
25080;BME280;13071;48.868;9.996;2022-07-12T05:28:21;97236.06;;;18.60;72.36
25080;BME280;13071;48.868;9.996;2022-07-12T05:30:47;97239.91;;;18.33;73.55
25080;BME280;13071;48.868;9.996;2022-07-12T05:33:14;97234.47;;;18.13;74.25
25080;BME280;13071;48.868;9.996;2022-07-12T05:35:41;97239.75;;;18.03;75.05
25080;BME280;13071;48.868;9.996;2022-07-12T05:38:07;97239.53;;;17.92;76.39
25080;BME280;13071;48.868;9.996;2022-07-12T05:40:35;97245.47;;;17.94;76.09
25080;BME280;13071;48.868;9.996;2022-07-12T05:43:02;97249.06;;;18.21;75.88
25080;BME280;13071;48.868;9.996;2022-07-12T05:45:28;97249.22;;;18.28;76.20
25080;BME280;13071;48.868;9.996;2022-07-12T05:47:55;97249.44;;;18.88;73.47
25080;BME280;13071;48.868;9.996;2022-07-12T05:50:22;97245.97;;;18.45;75.51
25080;BME280;13071;48.868;9.996;2022-07-12T05:52:48;97261.63;;;19.17;73.67
25080;BME280;13071;48.868;9.996;2022-07-12T05:55:32;97264.66;;;19.08;73.54
25080;BME280;13071;48.868;9.996;2022-07-12T05:58:00;97258.16;;;19.46;73.04
25080;BME280;13071;48.868;9.996;2022-07-12T06:00:27;97261.59;;;19.13;74.64
25080;BME280;13071;48.868;9.996;2022-07-12T06:02:54;97265.31;;;18.30;76.71
25080;BME280;13071;48.868;9.996;2022-07-12T06:05:20;97266.22;;;18.60;75.52
25080;BME280;13071;48.868;9.996;2022-07-12T06:07:47;97263.47;;;18.83;75.77
25080;BME280;13071;48.868;9.996;2022-07-12T06:10:14;97258.50;;;18.66;75.45
25080;BME280;13071;48.868;9.996;2022-07-12T06:12:40;97263.47;;;18.37;76.92
25080;BME280;13071;48.868;9.996;2022-07-12T06:15:09;97260.97;;;18.51;78.20
25080;BME280;13071;48.868;9.996;2022-07-12T06:17:36;97267.06;;;18.41;77.95
25080;BME280;13071;48.868;9.996;2022-07-12T06:20:04;97264.72;;;18.63;77.07
25080;BME280;13071;48.868;9.996;2022-07-12T06:22:30;97267.41;;;18.85;75.50
25080;BME280;13071;48.868;9.996;2022-07-12T06:24:57;97268.22;;;18.86;75.62
25080;BME280;13071;48.868;9.996;2022-07-12T06:27:23;97263.88;;;18.85;75.87
25080;BME280;13071;48.868;9.996;2022-07-12T06:29:51;97276.25;;;18.75;77.26
25080;BME280;13071;48.868;9.996;2022-07-12T06:32:19;97273.44;;;19.21;75.17
25080;BME280;13071;48.868;9.996;2022-07-12T06:34:45;97273.47;;;19.47;74.29
25080;BME280;13071;48.868;9.996;2022-07-12T06:37:12;97270.06;;;19.05;76.08
25080;BME280;13071;48.868;9.996;2022-07-12T06:39:40;97273.34;;;19.14;75.84
25080;BME280;13071;48.868;9.996;2022-07-12T06:42:07;97281.47;;;19.33;73.52
25080;BME280;13071;48.868;9.996;2022-07-12T06:44:34;97274.88;;;19.37;75.26
25080;BME280;13071;48.868;9.996;2022-07-12T06:47:00;97284.63;;;19.61;73.67
25080;BME280;13071;48.868;9.996;2022-07-12T06:49:29;97283.81;;;19.91;72.65
25080;BME280;13071;48.868;9.996;2022-07-12T06:51:56;97285.88;;;19.67;72.47
25080;BME280;13071;48.868;9.996;2022-07-12T06:54:22;97284.84;;;19.79;72.59
25080;BME280;13071;48.868;9.996;2022-07-12T06:56:50;97282.63;;;20.25;71.15
25080;BME280;13071;48.868;9.996;2022-07-12T06:59:17;97283.81;;;19.91;73.01
25080;BME280;13071;48.868;9.996;2022-07-12T07:01:44;97280.53;;;19.48;73.18
25080;BME280;13071;48.868;9.996;2022-07-12T07:04:11;97279.41;;;19.53;74.52
25080;BME280;13071;48.868;9.996;2022-07-12T07:06:39;97271.44;;;20.41;70.42
25080;BME280;13071;48.868;9.996;2022-07-12T07:09:06;97284.50;;;20.51;68.66
25080;BME280;13071;48.868;9.996;2022-07-12T07:11:34;97277.84;;;20.55;69.03
25080;BME280;13071;48.868;9.996;2022-07-12T07:14:02;97281.22;;;20.82;67.64
25080;BME280;13071;48.868;9.996;2022-07-12T07:16:29;97290.34;;;20.12;66.65
25080;BME280;13071;48.868;9.996;2022-07-12T07:18:56;97282.78;;;20.83;64.73
25080;BME280;13071;48.868;9.996;2022-07-12T07:21:22;97289.41;;;20.31;64.67
25080;BME280;13071;48.868;9.996;2022-07-12T07:23:51;97291.91;;;20.13;67.03
25080;BME280;13071;48.868;9.996;2022-07-12T07:26:18;97295.38;;;20.81;63.77
25080;BME280;13071;48.868;9.996;2022-07-12T07:28:44;97294.69;;;20.94;64.87
25080;BME280;13071;48.868;9.996;2022-07-12T07:31:29;97284.78;;;21.34;64.74
25080;BME280;13071;48.868;9.996;2022-07-12T07:33:56;97295.75;;;20.05;68.26
25080;BME280;13071;48.868;9.996;2022-07-12T07:36:23;97292.88;;;20.68;68.42
25080;BME280;13071;48.868;9.996;2022-07-12T07:38:51;97297.81;;;21.44;64.61
25080;BME280;13071;48.868;9.996;2022-07-12T07:41:17;97306.03;;;20.45;66.90
25080;BME280;13071;48.868;9.996;2022-07-12T07:43:44;97317.03;;;20.45;66.17
25080;BME280;13071;48.868;9.996;2022-07-12T07:46:10;97312.34;;;20.49;66.51
25080;BME280;13071;48.868;9.996;2022-07-12T07:48:37;97326.25;;;20.26;67.02
25080;BME280;13071;48.868;9.996;2022-07-12T07:51:04;97324.97;;;20.54;66.21
25080;BME280;13071;48.868;9.996;2022-07-12T07:53:31;97321.00;;;21.43;65.72
25080;BME280;13071;48.868;9.996;2022-07-12T07:55:59;97320.41;;;21.74;63.99
25080;BME280;13071;48.868;9.996;2022-07-12T07:58:26;97314.41;;;22.55;61.07
25080;BME280;13071;48.868;9.996;2022-07-12T08:00:53;97318.22;;;22.08;59.81
25080;BME280;13071;48.868;9.996;2022-07-12T08:03:20;97303.78;;;22.61;58.53
25080;BME280;13071;48.868;9.996;2022-07-12T08:05:47;97308.97;;;23.05;58.52
25080;BME280;13071;48.868;9.996;2022-07-12T08:08:16;97311.31;;;22.71;57.93
25080;BME280;13071;48.868;9.996;2022-07-12T08:10:42;97313.94;;;22.18;58.06
25080;BME280;13071;48.868;9.996;2022-07-12T08:13:10;97311.91;;;20.88;59.74
25080;BME280;13071;48.868;9.996;2022-07-12T08:15:37;97302.47;;;22.05;57.82
25080;BME280;13071;48.868;9.996;2022-07-12T08:18:04;97303.03;;;22.71;56.58
25080;BME280;13071;48.868;9.996;2022-07-12T08:20:31;97296.75;;;22.88;55.39
25080;BME280;13071;48.868;9.996;2022-07-12T08:22:57;97309.25;;;22.29;57.00
25080;BME280;13071;48.868;9.996;2022-07-12T08:25:24;97312.38;;;21.41;58.81
25080;BME280;13071;48.868;9.996;2022-07-12T08:27:51;97308.66;;;21.88;56.24
25080;BME280;13071;48.868;9.996;2022-07-12T08:30:19;97306.13;;;21.51;58.87
25080;BME280;13071;48.868;9.996;2022-07-12T08:32:46;97310.66;;;20.78;60.49
25080;BME280;13071;48.868;9.996;2022-07-12T08:35:13;97303.66;;;21.35;58.11
25080;BME280;13071;48.868;9.996;2022-07-12T08:37:40;97310.19;;;21.17;60.13
25080;BME280;13071;48.868;9.996;2022-07-12T08:40:08;97311.16;;;21.42;59.92
25080;BME280;13071;48.868;9.996;2022-07-12T08:42:35;97303.25;;;21.33;60.54
25080;BME280;13071;48.868;9.996;2022-07-12T08:45:02;97304.56;;;21.57;59.33
25080;BME280;13071;48.868;9.996;2022-07-12T08:47:31;97304.13;;;22.27;58.78
25080;BME280;13071;48.868;9.996;2022-07-12T08:50:11;97298.31;;;22.96;56.30
25080;BME280;13071;48.868;9.996;2022-07-12T08:52:39;97302.66;;;23.22;55.84
25080;BME280;13071;48.868;9.996;2022-07-12T08:55:17;97301.06;;;23.00;55.92
25080;BME280;13071;48.868;9.996;2022-07-12T08:57:44;97318.06;;;22.98;54.29
25080;BME280;13071;48.868;9.996;2022-07-12T09:00:12;97327.03;;;22.60;55.88
25080;BME280;13071;48.868;9.996;2022-07-12T09:02:50;97330.88;;;21.47;61.00
25080;BME280;13071;48.868;9.996;2022-07-12T09:05:19;97326.38;;;21.22;61.33
25080;BME280;13071;48.868;9.996;2022-07-12T09:07:46;97321.06;;;20.99;62.21
25080;BME280;13071;48.868;9.996;2022-07-12T09:10:13;97323.19;;;21.16;60.99
25080;BME280;13071;48.868;9.996;2022-07-12T09:12:40;97330.72;;;20.82;61.86
25080;BME280;13071;48.868;9.996;2022-07-12T09:15:15;97333.09;;;21.24;60.32
25080;BME280;13071;48.868;9.996;2022-07-12T09:17:53;97325.88;;;21.64;59.79
25080;BME280;13071;48.868;9.996;2022-07-12T09:20:22;97325.19;;;21.91;59.70
25080;BME280;13071;48.868;9.996;2022-07-12T09:22:54;97325.66;;;21.97;59.36
25080;BME280;13071;48.868;9.996;2022-07-12T09:25:22;97323.75;;;22.15;58.02
25080;BME280;13071;48.868;9.996;2022-07-12T09:27:53;97332.91;;;22.40;58.03
25080;BME280;13071;48.868;9.996;2022-07-12T09:30:20;97318.44;;;22.79;56.42
25080;BME280;13071;48.868;9.996;2022-07-12T09:32:58;97317.25;;;23.05;55.02
25080;BME280;13071;48.868;9.996;2022-07-12T09:35:58;97324.72;;;23.29;57.23
25080;BME280;13071;48.868;9.996;2022-07-12T09:38:36;97325.06;;;23.70;53.67
25080;BME280;13071;48.868;9.996;2022-07-12T09:41:03;97332.16;;;23.75;54.15
25080;BME280;13071;48.868;9.996;2022-07-12T09:43:31;97331.44;;;23.56;54.65
25080;BME280;13071;48.868;9.996;2022-07-12T09:45:58;97330.97;;;22.55;55.91
25080;BME280;13071;48.868;9.996;2022-07-12T09:48:26;97326.31;;;23.48;54.90
25080;BME280;13071;48.868;9.996;2022-07-12T09:50:56;97323.94;;;23.11;56.76
25080;BME280;13071;48.868;9.996;2022-07-12T09:53:27;97335.25;;;24.01;53.56
25080;BME280;13071;48.868;9.996;2022-07-12T09:55:54;97322.34;;;23.56;54.68
25080;BME280;13071;48.868;9.996;2022-07-12T09:58:27;97332.53;;;23.84;52.49
25080;BME280;13071;48.868;9.996;2022-07-12T10:00:54;97337.59;;;24.10;53.17
25080;BME280;13071;48.868;9.996;2022-07-12T10:03:22;97334.59;;;22.77;56.67
25080;BME280;13071;48.868;9.996;2022-07-12T10:05:51;97338.16;;;22.92;55.05
25080;BME280;13071;48.868;9.996;2022-07-12T10:08:20;97332.34;;;21.96;56.65
25080;BME280;13071;48.868;9.996;2022-07-12T10:10:48;97332.44;;;22.10;57.90
25080;BME280;13071;48.868;9.996;2022-07-12T10:13:16;97328.69;;;23.03;55.79
25080;BME280;13071;48.868;9.996;2022-07-12T10:15:45;97324.69;;;23.72;55.18
25080;BME280;13071;48.868;9.996;2022-07-12T10:18:17;97324.22;;;23.91;53.05
25080;BME280;13071;48.868;9.996;2022-07-12T10:20:44;97320.59;;;24.08;52.42
25080;BME280;13071;48.868;9.996;2022-07-12T10:23:35;97323.41;;;23.94;54.97
25080;BME280;13071;48.868;9.996;2022-07-12T10:26:24;97322.31;;;23.77;53.74
25080;BME280;13071;48.868;9.996;2022-07-12T10:28:55;97314.47;;;23.33;52.92
25080;BME280;13071;48.868;9.996;2022-07-12T10:31:23;97323.81;;;22.36;55.01
25080;BME280;13071;48.868;9.996;2022-07-12T10:34:09;97316.41;;;22.58;55.90
25080;BME280;13071;48.868;9.996;2022-07-12T10:37:06;97313.53;;;23.93;52.76
25080;BME280;13071;48.868;9.996;2022-07-12T10:39:34;97317.53;;;23.85;55.10
25080;BME280;13071;48.868;9.996;2022-07-12T10:42:15;97308.47;;;23.81;53.30
25080;BME280;13071;48.868;9.996;2022-07-12T10:44:45;97310.09;;;23.64;53.94
25080;BME280;13071;48.868;9.996;2022-07-12T10:47:13;97307.38;;;23.11;54.17
25080;BME280;13071;48.868;9.996;2022-07-12T10:49:48;97311.31;;;23.31;54.09
25080;BME280;13071;48.868;9.996;2022-07-12T10:52:25;97304.53;;;23.75;53.46
25080;BME280;13071;48.868;9.996;2022-07-12T10:55:18;97306.94;;;23.73;55.13
25080;BME280;13071;48.868;9.996;2022-07-12T10:57:47;97307.94;;;24.18;52.20
25080;BME280;13071;48.868;9.996;2022-07-12T11:00:16;97302.78;;;24.13;52.98
25080;BME280;13071;48.868;9.996;2022-07-12T11:02:44;97298.22;;;24.58;51.33
25080;BME280;13071;48.868;9.996;2022-07-12T11:05:10;97304.56;;;23.60;53.98
25080;BME280;13071;48.868;9.996;2022-07-12T11:07:37;97308.16;;;23.43;54.20
25080;BME280;13071;48.868;9.996;2022-07-12T11:10:05;97302.63;;;23.33;53.79
25080;BME280;13071;48.868;9.996;2022-07-12T11:12:33;97309.75;;;23.05;53.46
25080;BME280;13071;48.868;9.996;2022-07-12T11:15:00;97309.59;;;23.97;51.93
25080;BME280;13071;48.868;9.996;2022-07-12T11:17:29;97306.19;;;23.51;54.94
25080;BME280;13071;48.868;9.996;2022-07-12T11:20:04;97301.47;;;22.95;52.68
25080;BME280;13071;48.868;9.996;2022-07-12T11:22:32;97297.50;;;23.35;52.56
25080;BME280;13071;48.868;9.996;2022-07-12T11:24:58;97295.50;;;23.67;51.82
25080;BME280;13071;48.868;9.996;2022-07-12T11:27:26;97302.16;;;23.73;53.31
25080;BME280;13071;48.868;9.996;2022-07-12T11:29:57;97300.28;;;22.96;54.66
25080;BME280;13071;48.868;9.996;2022-07-12T11:32:33;97299.13;;;23.07;53.88
25080;BME280;13071;48.868;9.996;2022-07-12T11:35:00;97296.91;;;24.07;53.62
25080;BME280;13071;48.868;9.996;2022-07-12T11:37:26;97299.13;;;24.44;50.79
25080;BME280;13071;48.868;9.996;2022-07-12T11:39:53;97289.50;;;24.63;50.75
25080;BME280;13071;48.868;9.996;2022-07-12T11:42:20;97285.47;;;24.74;50.25
25080;BME280;13071;48.868;9.996;2022-07-12T11:44:47;97281.09;;;24.80;50.40
25080;BME280;13071;48.868;9.996;2022-07-12T11:47:17;97281.41;;;24.93;50.24
25080;BME280;13071;48.868;9.996;2022-07-12T11:49:45;97277.41;;;24.98;50.62
25080;BME280;13071;48.868;9.996;2022-07-12T11:52:12;97277.03;;;24.92;50.65
25080;BME280;13071;48.868;9.996;2022-07-12T11:54:39;97273.72;;;25.11;50.09
25080;BME280;13071;48.868;9.996;2022-07-12T11:57:07;97285.31;;;24.40;54.01
25080;BME280;13071;48.868;9.996;2022-07-12T11:59:34;97284.63;;;24.19;52.80
25080;BME280;13071;48.868;9.996;2022-07-12T12:02:04;97279.63;;;23.78;52.36
25080;BME280;13071;48.868;9.996;2022-07-12T12:04:44;97291.59;;;23.22;52.85
25080;BME280;13071;48.868;9.996;2022-07-12T12:07:11;97289.19;;;23.35;53.84
25080;BME280;13071;48.868;9.996;2022-07-12T12:10:01;97291.41;;;24.00;52.86
25080;BME280;13071;48.868;9.996;2022-07-12T12:12:34;97281.66;;;24.54;50.48
25080;BME280;13071;48.868;9.996;2022-07-12T12:15:03;97281.53;;;24.72;51.30
25080;BME280;13071;48.868;9.996;2022-07-12T12:17:30;97281.34;;;25.00;51.74
25080;BME280;13071;48.868;9.996;2022-07-12T12:20:07;97271.38;;;23.75;51.59
25080;BME280;13071;48.868;9.996;2022-07-12T12:22:34;97269.63;;;24.78;52.00
25080;BME280;13071;48.868;9.996;2022-07-12T12:25:02;97267.63;;;25.27;50.34
25080;BME280;13071;48.868;9.996;2022-07-12T12:27:29;97259.91;;;25.49;51.19
25080;BME280;13071;48.868;9.996;2022-07-12T12:29:58;97260.09;;;25.68;50.48
25080;BME280;13071;48.868;9.996;2022-07-12T12:32:25;97258.97;;;25.62;50.30
25080;BME280;13071;48.868;9.996;2022-07-12T12:35:09;97255.34;;;25.28;50.05
25080;BME280;13071;48.868;9.996;2022-07-12T12:37:37;97257.84;;;25.60;50.21
25080;BME280;13071;48.868;9.996;2022-07-12T12:40:04;97261.63;;;24.36;50.37
25080;BME280;13071;48.868;9.996;2022-07-12T12:42:31;97261.56;;;24.43;50.10
25080;BME280;13071;48.868;9.996;2022-07-12T12:44:58;97242.78;;;24.72;49.49
25080;BME280;13071;48.868;9.996;2022-07-12T12:47:24;97249.06;;;24.21;50.14
25080;BME280;13071;48.868;9.996;2022-07-12T12:49:57;97244.34;;;24.76;50.93
25080;BME280;13071;48.868;9.996;2022-07-12T12:52:28;97248.44;;;24.54;49.88
25080;BME280;13071;48.868;9.996;2022-07-12T12:54:56;97243.47;;;24.90;50.50
25080;BME280;13071;48.868;9.996;2022-07-12T12:57:23;97240.78;;;24.76;49.89
25080;BME280;13071;48.868;9.996;2022-07-12T12:59:51;97253.09;;;23.98;50.58
25080;BME280;13071;48.868;9.996;2022-07-12T13:02:18;97245.72;;;23.78;51.25
25080;BME280;13071;48.868;9.996;2022-07-12T13:04:45;97246.53;;;24.44;50.34
25080;BME280;13071;48.868;9.996;2022-07-12T13:07:12;97243.47;;;24.90;50.76